sensor_id;sensor_type;location;lat;lon;timestamp;P1;durP1;ratioP1;P2;durP2;ratioP2
52248;SDS011;38541;48.130;8.378;2023-04-25T00:00:48;2.33;;;2.13;;
52248;SDS011;38541;48.130;8.378;2023-04-25T00:03:15;1.85;;;1.75;;
52248;SDS011;38541;48.130;8.378;2023-04-25T00:05:42;1.95;;;1.83;;
52248;SDS011;38541;48.130;8.378;2023-04-25T00:08:09;2.42;;;1.90;;
52248;SDS011;38541;48.130;8.378;2023-04-25T00:10:35;2.88;;;1.80;;
52248;SDS011;38541;48.130;8.378;2023-04-25T00:13:02;2.97;;;2.15;;
52248;SDS011;38541;48.130;8.378;2023-04-25T00:15:29;2.17;;;1.73;;
52248;SDS011;38541;48.130;8.378;2023-04-25T00:17:56;2.25;;;2.05;;
52248;SDS011;38541;48.130;8.378;2023-04-25T00:20:23;2.50;;;2.03;;
52248;SDS011;38541;48.130;8.378;2023-04-25T00:22:50;2.03;;;1.85;;
52248;SDS011;38541;48.130;8.378;2023-04-25T00:25:19;2.50;;;2.17;;
52248;SDS011;38541;48.130;8.378;2023-04-25T00:27:45;2.28;;;2.10;;
52248;SDS011;38541;48.130;8.378;2023-04-25T00:30:12;2.35;;;1.80;;
52248;SDS011;38541;48.130;8.378;2023-04-25T00:32:39;3.17;;;2.00;;
52248;SDS011;38541;48.130;8.378;2023-04-25T00:35:06;3.13;;;1.98;;
52248;SDS011;38541;48.130;8.378;2023-04-25T00:37:32;1.92;;;1.63;;
52248;SDS011;38541;48.130;8.378;2023-04-25T00:39:59;2.95;;;1.90;;
52248;SDS011;38541;48.130;8.378;2023-04-25T00:42:25;3.90;;;2.00;;
52248;SDS011;38541;48.130;8.378;2023-04-25T00:44:52;3.22;;;2.15;;
52248;SDS011;38541;48.130;8.378;2023-04-25T00:47:19;4.60;;;2.30;;
52248;SDS011;38541;48.130;8.378;2023-04-25T00:49:46;3.15;;;2.13;;
52248;SDS011;38541;48.130;8.378;2023-04-25T00:52:12;2.22;;;2.03;;
52248;SDS011;38541;48.130;8.378;2023-04-25T00:54:39;4.30;;;2.10;;
52248;SDS011;38541;48.130;8.378;2023-04-25T00:57:06;1.95;;;1.73;;
52248;SDS011;38541;48.130;8.378;2023-04-25T00:59:33;2.38;;;1.92;;
52248;SDS011;38541;48.130;8.378;2023-04-25T01:01:59;2.90;;;1.85;;
52248;SDS011;38541;48.130;8.378;2023-04-25T01:04:27;2.88;;;2.20;;
52248;SDS011;38541;48.130;8.378;2023-04-25T01:06:54;4.20;;;2.20;;
52248;SDS011;38541;48.130;8.378;2023-04-25T01:09:22;2.45;;;2.08;;
52248;SDS011;38541;48.130;8.378;2023-04-25T01:11:49;2.40;;;2.20;;
52248;SDS011;38541;48.130;8.378;2023-04-25T01:14:15;4.03;;;2.03;;
52248;SDS011;38541;48.130;8.378;2023-04-25T01:16:42;3.03;;;1.98;;
52248;SDS011;38541;48.130;8.378;2023-04-25T01:19:09;3.05;;;2.45;;
52248;SDS011;38541;48.130;8.378;2023-04-25T01:21:39;2.67;;;2.15;;
52248;SDS011;38541;48.130;8.378;2023-04-25T01:24:06;3.85;;;2.83;;
52248;SDS011;38541;48.130;8.378;2023-04-25T01:26:33;2.65;;;2.08;;
52248;SDS011;38541;48.130;8.378;2023-04-25T01:29:01;2.90;;;2.45;;
52248;SDS011;38541;48.130;8.378;2023-04-25T01:31:28;2.55;;;2.35;;
52248;SDS011;38541;48.130;8.378;2023-04-25T01:33:55;3.13;;;2.20;;
52248;SDS011;38541;48.130;8.378;2023-04-25T01:36:21;2.50;;;2.30;;
52248;SDS011;38541;48.130;8.378;2023-04-25T01:38:48;4.00;;;2.42;;
52248;SDS011;38541;48.130;8.378;2023-04-25T01:41:15;2.53;;;1.70;;
52248;SDS011;38541;48.130;8.378;2023-04-25T01:43:43;3.78;;;2.45;;
52248;SDS011;38541;48.130;8.378;2023-04-25T01:46:11;2.40;;;2.20;;
52248;SDS011;38541;48.130;8.378;2023-04-25T01:48:38;3.28;;;2.25;;
52248;SDS011;38541;48.130;8.378;2023-04-25T01:51:05;2.30;;;1.95;;
52248;SDS011;38541;48.130;8.378;2023-04-25T01:53:32;2.95;;;2.60;;
52248;SDS011;38541;48.130;8.378;2023-04-25T01:56:01;2.13;;;1.92;;
52248;SDS011;38541;48.130;8.378;2023-04-25T01:58:32;3.90;;;1.83;;
52248;SDS011;38541;48.130;8.378;2023-04-25T02:01:14;3.40;;;2.38;;
52248;SDS011;38541;48.130;8.378;2023-04-25T02:03:47;1.90;;;1.80;;
52248;SDS011;38541;48.130;8.378;2023-04-25T02:06:23;3.55;;;2.28;;
52248;SDS011;38541;48.130;8.378;2023-04-25T02:08:52;4.45;;;2.20;;
52248;SDS011;38541;48.130;8.378;2023-04-25T02:11:19;2.97;;;2.42;;
52248;SDS011;38541;48.130;8.378;2023-04-25T02:13:54;1.83;;;1.73;;
52248;SDS011;38541;48.130;8.378;2023-04-25T02:16:32;2.65;;;2.40;;
52248;SDS011;38541;48.130;8.378;2023-04-25T02:19:00;2.47;;;2.20;;
52248;SDS011;38541;48.130;8.378;2023-04-25T02:21:29;2.40;;;2.20;;
52248;SDS011;38541;48.130;8.378;2023-04-25T02:23:56;3.47;;;1.70;;
52248;SDS011;38541;48.130;8.378;2023-04-25T02:26:23;2.10;;;1.85;;
52248;SDS011;38541;48.130;8.378;2023-04-25T02:28:50;2.30;;;2.05;;
52248;SDS011;38541;48.130;8.378;2023-04-25T02:31:18;1.95;;;1.75;;
52248;SDS011;38541;48.130;8.378;2023-04-25T02:33:45;2.72;;;2.00;;
52248;SDS011;38541;48.130;8.378;2023-04-25T02:36:12;2.33;;;2.13;;
52248;SDS011;38541;48.130;8.378;2023-04-25T02:38:40;2.42;;;1.83;;
52248;SDS011;38541;48.130;8.378;2023-04-25T02:41:07;2.35;;;1.90;;
52248;SDS011;38541;48.130;8.378;2023-04-25T02:43:33;2.55;;;1.85;;
52248;SDS011;38541;48.130;8.378;2023-04-25T02:45:59;3.50;;;1.65;;
52248;SDS011;38541;48.130;8.378;2023-04-25T02:48:26;2.17;;;1.90;;
52248;SDS011;38541;48.130;8.378;2023-04-25T02:50:52;1.60;;;1.50;;
52248;SDS011;38541;48.130;8.378;2023-04-25T02:53:19;1.98;;;1.70;;
52248;SDS011;38541;48.130;8.378;2023-04-25T02:55:48;1.80;;;1.70;;
52248;SDS011;38541;48.130;8.378;2023-04-25T02:58:15;1.77;;;1.55;;
52248;SDS011;38541;48.130;8.378;2023-04-25T03:00:48;2.33;;;1.98;;
52248;SDS011;38541;48.130;8.378;2023-04-25T03:03:15;2.45;;;2.25;;
52248;SDS011;38541;48.130;8.378;2023-04-25T03:05:44;2.15;;;1.95;;
52248;SDS011;38541;48.130;8.378;2023-04-25T03:08:13;2.40;;;2.13;;
52248;SDS011;38541;48.130;8.378;2023-04-25T03:10:40;2.95;;;2.00;;
52248;SDS011;38541;48.130;8.378;2023-04-25T03:13:08;3.15;;;2.00;;
52248;SDS011;38541;48.130;8.378;2023-04-25T03:15:35;2.13;;;1.88;;
52248;SDS011;38541;48.130;8.378;2023-04-25T03:18:02;2.35;;;1.83;;
52248;SDS011;38541;48.130;8.378;2023-04-25T03:20:29;2.40;;;2.20;;
52248;SDS011;38541;48.130;8.378;2023-04-25T03:22:56;2.38;;;2.15;;
52248;SDS011;38541;48.130;8.378;2023-04-25T03:25:22;2.60;;;1.95;;
52248;SDS011;38541;48.130;8.378;2023-04-25T03:27:49;3.10;;;2.40;;
52248;SDS011;38541;48.130;8.378;2023-04-25T03:30:16;3.92;;;2.38;;
52248;SDS011;38541;48.130;8.378;2023-04-25T03:32:43;4.97;;;2.47;;
52248;SDS011;38541;48.130;8.378;2023-04-25T03:35:14;2.53;;;2.13;;
52248;SDS011;38541;48.130;8.378;2023-04-25T03:37:40;2.40;;;2.20;;
52248;SDS011;38541;48.130;8.378;2023-04-25T03:40:07;2.17;;;1.98;;
52248;SDS011;38541;48.130;8.378;2023-04-25T03:42:54;5.28;;;2.63;;
52248;SDS011;38541;48.130;8.378;2023-04-25T03:45:21;3.17;;;2.40;;
52248;SDS011;38541;48.130;8.378;2023-04-25T03:47:48;2.83;;;2.30;;
52248;SDS011;38541;48.130;8.378;2023-04-25T03:50:14;2.50;;;2.22;;
52248;SDS011;38541;48.130;8.378;2023-04-25T03:52:42;2.03;;;1.83;;
52248;SDS011;38541;48.130;8.378;2023-04-25T03:55:09;2.50;;;2.30;;
52248;SDS011;38541;48.130;8.378;2023-04-25T03:57:37;3.05;;;2.30;;
52248;SDS011;38541;48.130;8.378;2023-04-25T04:00:04;3.20;;;2.33;;
52248;SDS011;38541;48.130;8.378;2023-04-25T04:02:38;3.05;;;2.30;;
52248;SDS011;38541;48.130;8.378;2023-04-25T04:05:07;3.97;;;3.10;;
52248;SDS011;38541;48.130;8.378;2023-04-25T04:07:38;6.82;;;4.88;;
52248;SDS011;38541;48.130;8.378;2023-04-25T04:10:09;7.90;;;6.05;;
52248;SDS011;38541;48.130;8.378;2023-04-25T04:12:38;6.82;;;4.13;;
52248;SDS011;38541;48.130;8.378;2023-04-25T04:15:05;3.83;;;3.05;;
52248;SDS011;38541;48.130;8.378;2023-04-25T04:17:33;10.40;;;5.60;;
52248;SDS011;38541;48.130;8.378;2023-04-25T04:20:00;20.55;;;8.32;;
52248;SDS011;38541;48.130;8.378;2023-04-25T04:22:29;20.00;;;8.82;;
52248;SDS011;38541;48.130;8.378;2023-04-25T04:25:00;11.68;;;5.70;;
52248;SDS011;38541;48.130;8.378;2023-04-25T04:27:44;4.13;;;3.47;;
52248;SDS011;38541;48.130;8.378;2023-04-25T04:30:21;3.55;;;3.00;;
52248;SDS011;38541;48.130;8.378;2023-04-25T04:32:58;6.65;;;3.00;;
52248;SDS011;38541;48.130;8.378;2023-04-25T04:35:27;5.90;;;4.07;;
52248;SDS011;38541;48.130;8.378;2023-04-25T04:37:54;6.10;;;3.67;;
52248;SDS011;38541;48.130;8.378;2023-04-25T04:40:22;4.47;;;2.90;;
52248;SDS011;38541;48.130;8.378;2023-04-25T04:42:59;3.78;;;3.15;;
52248;SDS011;38541;48.130;8.378;2023-04-25T04:45:47;5.30;;;3.70;;
52248;SDS011;38541;48.130;8.378;2023-04-25T04:48:32;4.32;;;3.00;;
52248;SDS011;38541;48.130;8.378;2023-04-25T04:51:38;7.13;;;3.72;;
52248;SDS011;38541;48.130;8.378;2023-04-25T04:54:14;6.33;;;4.17;;
52248;SDS011;38541;48.130;8.378;2023-04-25T04:56:56;3.92;;;3.15;;
52248;SDS011;38541;48.130;8.378;2023-04-25T04:59:34;4.18;;;3.33;;
52248;SDS011;38541;48.130;8.378;2023-04-25T05:02:06;2.90;;;2.70;;
52248;SDS011;38541;48.130;8.378;2023-04-25T05:05:05;3.78;;;3.38;;
52248;SDS011;38541;48.130;8.378;2023-04-25T05:07:49;4.32;;;3.83;;
52248;SDS011;38541;48.130;8.378;2023-04-25T05:10:30;5.63;;;5.13;;
52248;SDS011;38541;48.130;8.378;2023-04-25T05:13:09;4.65;;;4.25;;
52248;SDS011;38541;48.130;8.378;2023-04-25T05:15:59;3.40;;;2.85;;
52248;SDS011;38541;48.130;8.378;2023-04-25T05:18:33;3.53;;;2.67;;
52248;SDS011;38541;48.130;8.378;2023-04-25T05:21:18;11.20;;;6.25;;
52248;SDS011;38541;48.130;8.378;2023-04-25T05:24:03;10.00;;;6.30;;
52248;SDS011;38541;48.130;8.378;2023-04-25T05:26:49;6.28;;;4.22;;
52248;SDS011;38541;48.130;8.378;2023-04-25T05:29:44;6.05;;;5.32;;
52248;SDS011;38541;48.130;8.378;2023-04-25T05:32:21;21.23;;;11.63;;
52248;SDS011;38541;48.130;8.378;2023-04-25T05:34:49;20.23;;;12.75;;
52248;SDS011;38541;48.130;8.378;2023-04-25T05:37:22;23.23;;;11.82;;
52248;SDS011;38541;48.130;8.378;2023-04-25T05:39:59;16.67;;;8.82;;
52248;SDS011;38541;48.130;8.378;2023-04-25T05:42:39;5.13;;;4.63;;
52248;SDS011;38541;48.130;8.378;2023-04-25T05:45:24;4.90;;;3.97;;
52248;SDS011;38541;48.130;8.378;2023-04-25T05:48:01;3.97;;;2.65;;
52248;SDS011;38541;48.130;8.378;2023-04-25T05:51:02;4.40;;;3.10;;
52248;SDS011;38541;48.130;8.378;2023-04-25T05:53:58;3.08;;;2.78;;
52248;SDS011;38541;48.130;8.378;2023-04-25T05:56:25;2.53;;;2.33;;
52248;SDS011;38541;48.130;8.378;2023-04-25T05:58:52;3.13;;;2.90;;
52248;SDS011;38541;48.130;8.378;2023-04-25T06:01:19;2.53;;;2.33;;
52248;SDS011;38541;48.130;8.378;2023-04-25T06:03:45;2.97;;;2.20;;
52248;SDS011;38541;48.130;8.378;2023-04-25T06:06:12;3.72;;;2.35;;
52248;SDS011;38541;48.130;8.378;2023-04-25T06:08:39;2.90;;;2.55;;
52248;SDS011;38541;48.130;8.378;2023-04-25T06:11:09;3.58;;;3.20;;
52248;SDS011;38541;48.130;8.378;2023-04-25T06:13:36;3.70;;;3.33;;
52248;SDS011;38541;48.130;8.378;2023-04-25T06:16:03;6.05;;;3.40;;
52248;SDS011;38541;48.130;8.378;2023-04-25T06:18:29;3.45;;;3.15;;
52248;SDS011;38541;48.130;8.378;2023-04-25T06:20:56;4.28;;;2.97;;
52248;SDS011;38541;48.130;8.378;2023-04-25T06:23:24;4.00;;;3.70;;
52248;SDS011;38541;48.130;8.378;2023-04-25T06:25:56;3.40;;;3.05;;
52248;SDS011;38541;48.130;8.378;2023-04-25T06:28:23;3.05;;;2.72;;
52248;SDS011;38541;48.130;8.378;2023-04-25T06:30:50;5.13;;;2.60;;
52248;SDS011;38541;48.130;8.378;2023-04-25T06:33:18;2.60;;;2.40;;
52248;SDS011;38541;48.130;8.378;2023-04-25T06:35:46;2.28;;;2.00;;
52248;SDS011;38541;48.130;8.378;2023-04-25T06:38:16;2.13;;;2.00;;
52248;SDS011;38541;48.130;8.378;2023-04-25T06:40:46;4.07;;;2.40;;
52248;SDS011;38541;48.130;8.378;2023-04-25T06:43:13;5.20;;;2.20;;
52248;SDS011;38541;48.130;8.378;2023-04-25T06:45:56;3.97;;;2.17;;
52248;SDS011;38541;48.130;8.378;2023-04-25T06:48:26;2.40;;;2.20;;
52248;SDS011;38541;48.130;8.378;2023-04-25T06:50:53;2.60;;;2.35;;
52248;SDS011;38541;48.130;8.378;2023-04-25T06:53:20;3.40;;;2.30;;
52248;SDS011;38541;48.130;8.378;2023-04-25T06:55:52;3.13;;;2.67;;
52248;SDS011;38541;48.130;8.378;2023-04-25T06:58:21;1.98;;;1.88;;
52248;SDS011;38541;48.130;8.378;2023-04-25T07:01:01;2.63;;;2.00;;
52248;SDS011;38541;48.130;8.378;2023-04-25T07:03:28;3.55;;;2.13;;
52248;SDS011;38541;48.130;8.378;2023-04-25T07:05:58;3.65;;;2.20;;
52248;SDS011;38541;48.130;8.378;2023-04-25T07:08:26;2.63;;;2.10;;
52248;SDS011;38541;48.130;8.378;2023-04-25T07:10:52;1.55;;;1.45;;
52248;SDS011;38541;48.130;8.378;2023-04-25T07:13:19;2.80;;;1.92;;
52248;SDS011;38541;48.130;8.378;2023-04-25T07:15:46;2.10;;;1.80;;
52248;SDS011;38541;48.130;8.378;2023-04-25T07:18:16;3.72;;;1.60;;
52248;SDS011;38541;48.130;8.378;2023-04-25T07:20:42;1.02;;;1.02;;
52248;SDS011;38541;48.130;8.378;2023-04-25T07:23:09;1.23;;;1.13;;
52248;SDS011;38541;48.130;8.378;2023-04-25T07:25:36;1.30;;;1.20;;
52248;SDS011;38541;48.130;8.378;2023-04-25T07:28:03;1.08;;;1.05;;
52248;SDS011;38541;48.130;8.378;2023-04-25T07:30:30;1.20;;;1.02;;
52248;SDS011;38541;48.130;8.378;2023-04-25T07:32:57;2.50;;;1.58;;
52248;SDS011;38541;48.130;8.378;2023-04-25T07:35:24;1.30;;;1.20;;
52248;SDS011;38541;48.130;8.378;2023-04-25T07:37:50;0.90;;;0.90;;
52248;SDS011;38541;48.130;8.378;2023-04-25T07:40:18;1.52;;;1.00;;
52248;SDS011;38541;48.130;8.378;2023-04-25T07:42:49;1.55;;;1.05;;
52248;SDS011;38541;48.130;8.378;2023-04-25T07:45:21;1.08;;;0.90;;
52248;SDS011;38541;48.130;8.378;2023-04-25T07:47:48;0.80;;;0.80;;
52248;SDS011;38541;48.130;8.378;2023-04-25T07:50:14;1.40;;;1.30;;
52248;SDS011;38541;48.130;8.378;2023-04-25T07:52:41;1.60;;;1.13;;
52248;SDS011;38541;48.130;8.378;2023-04-25T07:55:24;1.13;;;1.02;;
52248;SDS011;38541;48.130;8.378;2023-04-25T07:57:59;0.80;;;0.80;;
52248;SDS011;38541;48.130;8.378;2023-04-25T08:00:28;1.90;;;0.90;;
52248;SDS011;38541;48.130;8.378;2023-04-25T08:03:14;2.72;;;1.10;;
52248;SDS011;38541;48.130;8.378;2023-04-25T08:05:42;1.35;;;1.10;;
52248;SDS011;38541;48.130;8.378;2023-04-25T08:08:09;0.80;;;0.80;;
52248;SDS011;38541;48.130;8.378;2023-04-25T08:10:36;1.50;;;0.82;;
52248;SDS011;38541;48.130;8.378;2023-04-25T08:13:02;0.90;;;0.77;;
52248;SDS011;38541;48.130;8.378;2023-04-25T08:15:29;0.47;;;0.47;;
52248;SDS011;38541;48.130;8.378;2023-04-25T08:17:56;0.70;;;0.70;;
52248;SDS011;38541;48.130;8.378;2023-04-25T08:20:22;0.57;;;0.57;;
52248;SDS011;38541;48.130;8.378;2023-04-25T08:22:51;0.50;;;0.50;;
52248;SDS011;38541;48.130;8.378;2023-04-25T08:28:06;1.08;;;0.73;;
52248;SDS011;38541;48.130;8.378;2023-04-25T08:30:33;0.50;;;0.50;;
52248;SDS011;38541;48.130;8.378;2023-04-25T08:32:59;0.60;;;0.60;;
52248;SDS011;38541;48.130;8.378;2023-04-25T08:35:46;0.60;;;0.60;;
52248;SDS011;38541;48.130;8.378;2023-04-25T08:38:13;0.80;;;0.80;;
52248;SDS011;38541;48.130;8.378;2023-04-25T08:40:40;0.70;;;0.70;;
52248;SDS011;38541;48.130;8.378;2023-04-25T08:43:13;0.70;;;0.70;;
52248;SDS011;38541;48.130;8.378;2023-04-25T08:45:41;0.70;;;0.70;;
52248;SDS011;38541;48.130;8.378;2023-04-25T08:48:14;0.50;;;0.50;;
52248;SDS011;38541;48.130;8.378;2023-04-25T08:50:48;0.43;;;0.43;;
52248;SDS011;38541;48.130;8.378;2023-04-25T08:53:21;0.30;;;0.30;;
52248;SDS011;38541;48.130;8.378;2023-04-25T08:56:02;0.70;;;0.65;;
52248;SDS011;38541;48.130;8.378;2023-04-25T08:58:33;0.40;;;0.40;;
52248;SDS011;38541;48.130;8.378;2023-04-25T09:01:00;0.50;;;0.50;;
52248;SDS011;38541;48.130;8.378;2023-04-25T09:03:30;0.95;;;0.70;;
52248;SDS011;38541;48.130;8.378;2023-04-25T09:05:57;0.60;;;0.60;;
52248;SDS011;38541;48.130;8.378;2023-04-25T09:08:24;0.80;;;0.80;;
52248;SDS011;38541;48.130;8.378;2023-04-25T09:10:51;0.75;;;0.70;;
52248;SDS011;38541;48.130;8.378;2023-04-25T09:13:23;0.80;;;0.80;;
52248;SDS011;38541;48.130;8.378;2023-04-25T09:16:10;0.60;;;0.40;;
52248;SDS011;38541;48.130;8.378;2023-04-25T09:18:57;0.50;;;0.50;;
52248;SDS011;38541;48.130;8.378;2023-04-25T09:21:24;0.70;;;0.70;;
52248;SDS011;38541;48.130;8.378;2023-04-25T09:23:51;0.60;;;0.60;;
52248;SDS011;38541;48.130;8.378;2023-04-25T09:26:20;1.17;;;0.60;;
52248;SDS011;38541;48.130;8.378;2023-04-25T09:28:48;0.30;;;0.30;;
52248;SDS011;38541;48.130;8.378;2023-04-25T09:31:21;0.38;;;0.38;;
52248;SDS011;38541;48.130;8.378;2023-04-25T09:34:00;0.63;;;0.63;;
52248;SDS011;38541;48.130;8.378;2023-04-25T09:36:34;0.40;;;0.40;;
52248;SDS011;38541;48.130;8.378;2023-04-25T09:39:15;0.50;;;0.50;;
52248;SDS011;38541;48.130;8.378;2023-04-25T09:41:48;0.40;;;0.40;;
52248;SDS011;38541;48.130;8.378;2023-04-25T09:44:23;0.60;;;0.60;;
52248;SDS011;38541;48.130;8.378;2023-04-25T09:46:52;0.60;;;0.60;;
52248;SDS011;38541;48.130;8.378;2023-04-25T09:49:23;0.75;;;0.40;;
52248;SDS011;38541;48.130;8.378;2023-04-25T09:52:06;0.75;;;0.75;;
52248;SDS011;38541;48.130;8.378;2023-04-25T09:54:39;0.50;;;0.50;;
52248;SDS011;38541;48.130;8.378;2023-04-25T09:57:16;1.30;;;1.20;;
52248;SDS011;38541;48.130;8.378;2023-04-25T09:59:49;0.30;;;0.30;;
52248;SDS011;38541;48.130;8.378;2023-04-25T10:02:17;0.60;;;0.60;;
52248;SDS011;38541;48.130;8.378;2023-04-25T10:04:49;0.40;;;0.40;;
52248;SDS011;38541;48.130;8.378;2023-04-25T10:07:29;0.40;;;0.40;;
52248;SDS011;38541;48.130;8.378;2023-04-25T10:10:00;0.52;;;0.40;;
52248;SDS011;38541;48.130;8.378;2023-04-25T10:12:29;1.15;;;0.55;;
52248;SDS011;38541;48.130;8.378;2023-04-25T10:14:59;1.05;;;0.60;;
52248;SDS011;38541;48.130;8.378;2023-04-25T10:17:27;0.75;;;0.63;;
52248;SDS011;38541;48.130;8.378;2023-04-25T10:19:54;0.40;;;0.40;;
52248;SDS011;38541;48.130;8.378;2023-04-25T10:22:31;0.85;;;0.40;;
52248;SDS011;38541;48.130;8.378;2023-04-25T10:25:00;0.50;;;0.50;;
52248;SDS011;38541;48.130;8.378;2023-04-25T10:27:30;0.30;;;0.30;;
52248;SDS011;38541;48.130;8.378;2023-04-25T10:32:36;0.30;;;0.30;;
52248;SDS011;38541;48.130;8.378;2023-04-25T10:35:15;0.68;;;0.40;;
52248;SDS011;38541;48.130;8.378;2023-04-25T10:40:33;0.50;;;0.50;;
52248;SDS011;38541;48.130;8.378;2023-04-25T10:45:58;0.40;;;0.40;;
52248;SDS011;38541;48.130;8.378;2023-04-25T10:48:29;0.30;;;0.30;;
52248;SDS011;38541;48.130;8.378;2023-04-25T10:51:09;0.80;;;0.80;;
52248;SDS011;38541;48.130;8.378;2023-04-25T10:53:36;0.57;;;0.57;;
52248;SDS011;38541;48.130;8.378;2023-04-25T10:56:18;0.40;;;0.40;;
52248;SDS011;38541;48.130;8.378;2023-04-25T10:58:46;1.75;;;0.50;;
52248;SDS011;38541;48.130;8.378;2023-04-25T11:01:19;0.50;;;0.50;;
52248;SDS011;38541;48.130;8.378;2023-04-25T11:03:47;0.80;;;0.80;;
52248;SDS011;38541;48.130;8.378;2023-04-25T11:06:25;0.70;;;0.70;;
52248;SDS011;38541;48.130;8.378;2023-04-25T11:08:59;1.98;;;1.10;;
52248;SDS011;38541;48.130;8.378;2023-04-25T11:11:28;1.00;;;0.90;;
52248;SDS011;38541;48.130;8.378;2023-04-25T11:13:55;1.13;;;1.02;;
52248;SDS011;38541;48.130;8.378;2023-04-25T11:16:23;1.20;;;1.10;;
52248;SDS011;38541;48.130;8.378;2023-04-25T11:18:56;1.02;;;0.90;;
52248;SDS011;38541;48.130;8.378;2023-04-25T11:21:25;1.27;;;1.10;;
52248;SDS011;38541;48.130;8.378;2023-04-25T11:23:54;1.20;;;1.10;;
52248;SDS011;38541;48.130;8.378;2023-04-25T11:26:24;1.30;;;1.20;;
52248;SDS011;38541;48.130;8.378;2023-04-25T11:28:51;1.92;;;1.60;;
52248;SDS011;38541;48.130;8.378;2023-04-25T11:31:20;1.90;;;1.30;;
52248;SDS011;38541;48.130;8.378;2023-04-25T11:33:47;2.60;;;1.88;;
52248;SDS011;38541;48.130;8.378;2023-04-25T11:36:14;1.30;;;1.30;;
52248;SDS011;38541;48.130;8.378;2023-04-25T11:38:41;1.40;;;1.30;;
52248;SDS011;38541;48.130;8.378;2023-04-25T11:41:07;1.10;;;1.10;;
52248;SDS011;38541;48.130;8.378;2023-04-25T11:43:34;2.58;;;1.20;;
52248;SDS011;38541;48.130;8.378;2023-04-25T11:46:00;1.30;;;1.20;;
52248;SDS011;38541;48.130;8.378;2023-04-25T11:48:27;1.95;;;1.35;;
52248;SDS011;38541;48.130;8.378;2023-04-25T11:50:54;1.30;;;1.20;;
52248;SDS011;38541;48.130;8.378;2023-04-25T11:53:21;1.63;;;1.45;;
52248;SDS011;38541;48.130;8.378;2023-04-25T11:55:47;0.80;;;0.80;;
52248;SDS011;38541;48.130;8.378;2023-04-25T11:58:14;6.93;;;1.42;;
52248;SDS011;38541;48.130;8.378;2023-04-25T12:00:41;1.20;;;1.10;;
52248;SDS011;38541;48.130;8.378;2023-04-25T12:03:17;1.05;;;1.05;;
52248;SDS011;38541;48.130;8.378;2023-04-25T12:05:45;0.80;;;0.80;;
52248;SDS011;38541;48.130;8.378;2023-04-25T12:08:13;1.13;;;1.08;;
52248;SDS011;38541;48.130;8.378;2023-04-25T12:10:41;1.10;;;1.10;;
52248;SDS011;38541;48.130;8.378;2023-04-25T12:13:24;1.10;;;1.00;;
52248;SDS011;38541;48.130;8.378;2023-04-25T12:15:54;1.00;;;1.00;;
52248;SDS011;38541;48.130;8.378;2023-04-25T12:18:25;1.30;;;1.20;;
52248;SDS011;38541;48.130;8.378;2023-04-25T12:20:54;2.63;;;1.80;;
52248;SDS011;38541;48.130;8.378;2023-04-25T12:23:27;2.88;;;1.50;;
52248;SDS011;38541;48.130;8.378;2023-04-25T12:25:54;1.20;;;1.10;;
52248;SDS011;38541;48.130;8.378;2023-04-25T12:28:22;1.10;;;1.10;;
52248;SDS011;38541;48.130;8.378;2023-04-25T12:31:03;1.00;;;1.00;;
52248;SDS011;38541;48.130;8.378;2023-04-25T12:33:34;2.42;;;1.20;;
52248;SDS011;38541;48.130;8.378;2023-04-25T12:36:03;1.20;;;1.08;;
52248;SDS011;38541;48.130;8.378;2023-04-25T12:38:36;2.13;;;1.40;;
52248;SDS011;38541;48.130;8.378;2023-04-25T12:41:04;1.15;;;1.05;;
52248;SDS011;38541;48.130;8.378;2023-04-25T12:43:31;5.65;;;1.65;;
52248;SDS011;38541;48.130;8.378;2023-04-25T12:45:57;0.95;;;0.90;;
52248;SDS011;38541;48.130;8.378;2023-04-25T12:48:24;1.20;;;1.10;;
52248;SDS011;38541;48.130;8.378;2023-04-25T12:50:50;0.90;;;0.90;;
52248;SDS011;38541;48.130;8.378;2023-04-25T12:53:18;1.30;;;1.20;;
52248;SDS011;38541;48.130;8.378;2023-04-25T12:55:46;1.17;;;1.10;;
52248;SDS011;38541;48.130;8.378;2023-04-25T12:58:13;1.30;;;1.00;;
52248;SDS011;38541;48.130;8.378;2023-04-25T13:00:40;1.30;;;1.10;;
52248;SDS011;38541;48.130;8.378;2023-04-25T13:03:07;1.00;;;1.00;;
52248;SDS011;38541;48.130;8.378;2023-04-25T13:05:34;1.58;;;1.48;;
52248;SDS011;38541;48.130;8.378;2023-04-25T13:08:01;1.42;;;1.10;;
52248;SDS011;38541;48.130;8.378;2023-04-25T13:10:27;2.13;;;1.70;;
52248;SDS011;38541;48.130;8.378;2023-04-25T13:12:54;1.65;;;1.35;;
52248;SDS011;38541;48.130;8.378;2023-04-25T13:15:20;3.17;;;1.85;;
52248;SDS011;38541;48.130;8.378;2023-04-25T13:17:48;1.98;;;1.40;;
52248;SDS011;38541;48.130;8.378;2023-04-25T13:20:14;1.88;;;1.20;;
52248;SDS011;38541;48.130;8.378;2023-04-25T13:22:41;1.10;;;1.05;;
52248;SDS011;38541;48.130;8.378;2023-04-25T13:25:09;1.60;;;1.50;;
52248;SDS011;38541;48.130;8.378;2023-04-25T13:27:35;1.17;;;1.10;;
52248;SDS011;38541;48.130;8.378;2023-04-25T13:30:03;1.17;;;1.17;;
52248;SDS011;38541;48.130;8.378;2023-04-25T13:32:34;1.25;;;1.20;;
52248;SDS011;38541;48.130;8.378;2023-04-25T13:35:06;0.75;;;0.75;;
52248;SDS011;38541;48.130;8.378;2023-04-25T13:37:36;0.77;;;0.77;;
52248;SDS011;38541;48.130;8.378;2023-04-25T13:40:04;0.70;;;0.70;;
52248;SDS011;38541;48.130;8.378;2023-04-25T13:42:35;0.77;;;0.77;;
52248;SDS011;38541;48.130;8.378;2023-04-25T13:45:02;0.80;;;0.80;;
52248;SDS011;38541;48.130;8.378;2023-04-25T13:47:29;1.20;;;1.10;;
52248;SDS011;38541;48.130;8.378;2023-04-25T13:49:56;2.92;;;1.23;;
52248;SDS011;38541;48.130;8.378;2023-04-25T13:52:23;0.98;;;0.80;;
52248;SDS011;38541;48.130;8.378;2023-04-25T13:54:50;2.50;;;1.20;;
52248;SDS011;38541;48.130;8.378;2023-04-25T13:57:17;1.48;;;1.10;;
52248;SDS011;38541;48.130;8.378;2023-04-25T13:59:44;1.42;;;1.20;;
52248;SDS011;38541;48.130;8.378;2023-04-25T14:02:10;1.52;;;1.40;;
52248;SDS011;38541;48.130;8.378;2023-04-25T14:04:37;1.30;;;1.20;;
52248;SDS011;38541;48.130;8.378;2023-04-25T14:07:03;1.50;;;1.20;;
52248;SDS011;38541;48.130;8.378;2023-04-25T14:09:31;1.73;;;1.15;;
52248;SDS011;38541;48.130;8.378;2023-04-25T14:11:57;1.38;;;1.27;;
52248;SDS011;38541;48.130;8.378;2023-04-25T14:14:24;1.50;;;1.33;;
52248;SDS011;38541;48.130;8.378;2023-04-25T14:16:50;1.13;;;1.02;;
52248;SDS011;38541;48.130;8.378;2023-04-25T14:19:22;1.02;;;1.02;;
52248;SDS011;38541;48.130;8.378;2023-04-25T14:21:49;1.83;;;1.40;;
52248;SDS011;38541;48.130;8.378;2023-04-25T14:24:16;1.58;;;1.48;;
52248;SDS011;38541;48.130;8.378;2023-04-25T14:26:43;1.90;;;1.65;;
52248;SDS011;38541;48.130;8.378;2023-04-25T14:29:09;1.42;;;1.10;;
52248;SDS011;38541;48.130;8.378;2023-04-25T14:31:38;1.30;;;1.20;;
52248;SDS011;38541;48.130;8.378;2023-04-25T14:34:06;1.52;;;1.25;;
52248;SDS011;38541;48.130;8.378;2023-04-25T14:36:33;1.52;;;1.42;;
52248;SDS011;38541;48.130;8.378;2023-04-25T14:39:00;1.60;;;1.40;;
52248;SDS011;38541;48.130;8.378;2023-04-25T14:41:27;3.22;;;1.85;;
52248;SDS011;38541;48.130;8.378;2023-04-25T14:43:53;3.30;;;1.50;;
52248;SDS011;38541;48.130;8.378;2023-04-25T14:46:20;16.73;;;6.70;;
52248;SDS011;38541;48.130;8.378;2023-04-25T14:48:46;11.68;;;4.05;;
52248;SDS011;38541;48.130;8.378;2023-04-25T14:51:13;2.42;;;1.23;;
52248;SDS011;38541;48.130;8.378;2023-04-25T14:53:40;1.95;;;1.17;;
52248;SDS011;38541;48.130;8.378;2023-04-25T14:56:07;1.55;;;1.10;;
52248;SDS011;38541;48.130;8.378;2023-04-25T14:58:34;0.80;;;0.80;;
52248;SDS011;38541;48.130;8.378;2023-04-25T15:01:01;1.33;;;1.23;;
52248;SDS011;38541;48.130;8.378;2023-04-25T15:03:28;1.83;;;1.73;;
52248;SDS011;38541;48.130;8.378;2023-04-25T15:05:55;1.02;;;1.02;;
52248;SDS011;38541;48.130;8.378;2023-04-25T15:08:21;2.47;;;1.05;;
52248;SDS011;38541;48.130;8.378;2023-04-25T15:10:48;1.30;;;1.20;;
52248;SDS011;38541;48.130;8.378;2023-04-25T15:13:14;2.00;;;1.63;;
52248;SDS011;38541;48.130;8.378;2023-04-25T15:15:41;1.23;;;1.13;;